sensor_id;sensor_type;location;lat;lon;timestamp;pressure;altitude;pressure_sealevel;temperature;humidity
73516;BME280;61763;51.416;5.442;2024-03-02T00:02:07;99721.56;;;8.39;100.00
73516;BME280;61763;51.416;5.442;2024-03-02T00:04:33;99747.97;;;8.32;100.00
73516;BME280;61763;51.416;5.442;2024-03-02T00:06:59;99781.81;;;8.20;100.00
73516;BME280;61763;51.416;5.442;2024-03-02T00:09:24;99817.88;;;8.00;100.00
73516;BME280;61763;51.416;5.442;2024-03-02T00:11:50;99811.13;;;7.44;100.00
73516;BME280;61763;51.416;5.442;2024-03-02T00:14:16;99819.31;;;7.07;100.00
73516;BME280;61763;51.416;5.442;2024-03-02T00:16:41;99831.38;;;6.81;100.00
73516;BME280;61763;51.416;5.442;2024-03-02T00:19:08;99841.84;;;6.68;100.00
73516;BME280;61763;51.416;5.442;2024-03-02T00:21:34;99838.44;;;6.47;100.00
73516;BME280;61763;51.416;5.442;2024-03-02T00:23:59;99837.78;;;6.42;100.00
73516;BME280;61763;51.416;5.442;2024-03-02T00:26:25;99841.84;;;6.31;100.00
73516;BME280;61763;51.416;5.442;2024-03-02T00:28:54;99833.50;;;6.20;100.00
73516;BME280;61763;51.416;5.442;2024-03-02T00:31:22;99838.13;;;6.17;100.00
73516;BME280;61763;51.416;5.442;2024-03-02T00:33:48;99835.88;;;6.07;100.00
73516;BME280;61763;51.416;5.442;2024-03-02T00:36:22;99847.59;;;6.05;100.00
73516;BME280;61763;51.416;5.442;2024-03-02T00:38:50;99847.75;;;6.02;100.00
73516;BME280;61763;51.416;5.442;2024-03-02T00:41:23;99843.13;;;6.05;100.00
73516;BME280;61763;51.416;5.442;2024-03-02T00:44:02;99848.69;;;6.01;100.00
73516;BME280;61763;51.416;5.442;2024-03-02T00:46:35;99844.69;;;6.09;100.00
73516;BME280;61763;51.416;5.442;2024-03-02T00:49:06;99844.94;;;6.05;100.00
73516;BME280;61763;51.416;5.442;2024-03-02T00:51:37;99858.63;;;5.99;100.00
73516;BME280;61763;51.416;5.442;2024-03-02T00:54:07;99846.97;;;6.00;100.00
73516;BME280;61763;51.416;5.442;2024-03-02T00:56:34;99843.28;;;6.02;100.00
73516;BME280;61763;51.416;5.442;2024-03-02T00:59:00;99845.22;;;5.99;100.00
73516;BME280;61763;51.416;5.442;2024-03-02T01:01:26;99850.44;;;6.02;100.00
73516;BME280;61763;51.416;5.442;2024-03-02T01:03:52;99854.94;;;6.01;100.00
73516;BME280;61763;51.416;5.442;2024-03-02T01:06:18;99849.44;;;6.04;100.00
73516;BME280;61763;51.416;5.442;2024-03-02T01:08:43;99845.91;;;6.04;100.00
73516;BME280;61763;51.416;5.442;2024-03-02T01:11:09;99850.94;;;6.10;100.00
73516;BME280;61763;51.416;5.442;2024-03-02T01:13:34;99851.09;;;6.07;100.00
73516;BME280;61763;51.416;5.442;2024-03-02T01:16:01;99847.53;;;6.06;100.00
73516;BME280;61763;51.416;5.442;2024-03-02T01:18:27;99858.47;;;6.21;100.00
73516;BME280;61763;51.416;5.442;2024-03-02T01:20:52;99853.41;;;6.14;100.00
73516;BME280;61763;51.416;5.442;2024-03-02T01:23:19;99845.59;;;6.10;100.00
73516;BME280;61763;51.416;5.442;2024-03-02T01:25:46;99852.47;;;6.16;100.00
73516;BME280;61763;51.416;5.442;2024-03-02T01:28:12;99859.84;;;6.10;100.00
73516;BME280;61763;51.416;5.442;2024-03-02T01:30:38;99851.50;;;6.17;100.00
73516;BME280;61763;51.416;5.442;2024-03-02T01:33:03;99857.38;;;6.25;100.00
73516;BME280;61763;51.416;5.442;2024-03-02T01:35:31;99861.84;;;6.43;100.00
73516;BME280;61763;51.416;5.442;2024-03-02T01:37:56;99863.16;;;6.35;100.00
73516;BME280;61763;51.416;5.442;2024-03-02T01:40:21;99861.72;;;6.27;100.00
73516;BME280;61763;51.416;5.442;2024-03-02T01:42:48;99854.31;;;6.32;100.00
73516;BME280;61763;51.416;5.442;2024-03-02T01:45:14;99851.72;;;6.31;100.00
73516;BME280;61763;51.416;5.442;2024-03-02T01:47:40;99853.31;;;6.35;100.00
73516;BME280;61763;51.416;5.442;2024-03-02T01:50:05;99863.16;;;6.35;100.00
73516;BME280;61763;51.416;5.442;2024-03-02T01:52:31;99855.13;;;6.35;100.00
73516;BME280;61763;51.416;5.442;2024-03-02T01:54:56;99853.84;;;6.24;100.00
73516;BME280;61763;51.416;5.442;2024-03-02T01:57:22;99868.88;;;6.27;100.00
73516;BME280;61763;51.416;5.442;2024-03-02T01:59:47;99867.09;;;6.27;100.00
73516;BME280;61763;51.416;5.442;2024-03-02T02:02:14;99864.47;;;6.26;100.00
73516;BME280;61763;51.416;5.442;2024-03-02T02:04:39;99859.97;;;6.26;100.00
73516;BME280;61763;51.416;5.442;2024-03-02T02:07:05;99863.75;;;6.22;100.00
73516;BME280;61763;51.416;5.442;2024-03-02T02:09:31;99865.72;;;6.19;100.00
73516;BME280;61763;51.416;5.442;2024-03-02T02:11:57;99866.22;;;6.08;100.00
73516;BME280;61763;51.416;5.442;2024-03-02T02:14:22;99856.53;;;6.05;100.00
73516;BME280;61763;51.416;5.442;2024-03-02T02:16:48;99864.34;;;6.10;100.00
73516;BME280;61763;51.416;5.442;2024-03-02T02:19:13;99858.69;;;6.16;100.00
73516;BME280;61763;51.416;5.442;2024-03-02T02:21:42;99863.81;;;6.02;100.00
73516;BME280;61763;51.416;5.442;2024-03-02T02:24:07;99855.09;;;5.98;100.00
73516;BME280;61763;51.416;5.442;2024-03-02T02:26:33;99859.41;;;6.01;100.00
73516;BME280;61763;51.416;5.442;2024-03-02T02:28:58;99853.94;;;6.04;100.00
73516;BME280;61763;51.416;5.442;2024-03-02T02:31:23;99844.69;;;6.09;100.00
73516;BME280;61763;51.416;5.442;2024-03-02T02:33:49;99845.16;;;6.00;100.00
73516;BME280;61763;51.416;5.442;2024-03-02T02:36:14;99841.81;;;5.95;100.00
73516;BME280;61763;51.416;5.442;2024-03-02T02:38:43;99838.47;;;5.90;100.00
73516;BME280;61763;51.416;5.442;2024-03-02T02:41:09;99837.25;;;5.97;100.00
73516;BME280;61763;51.416;5.442;2024-03-02T02:43:35;99841.00;;;5.93;100.00
73516;BME280;61763;51.416;5.442;2024-03-02T02:46:00;99852.66;;;5.92;100.00
73516;BME280;61763;51.416;5.442;2024-03-02T02:48:25;99863.13;;;5.98;100.00
73516;BME280;61763;51.416;5.442;2024-03-02T02:50:51;99854.19;;;5.97;100.00
73516;BME280;61763;51.416;5.442;2024-03-02T02:53:16;99857.13;;;5.91;100.00
73516;BME280;61763;51.416;5.442;2024-03-02T02:55:42;99845.03;;;5.83;100.00
73516;BME280;61763;51.416;5.442;2024-03-02T02:58:09;99856.03;;;5.76;100.00
73516;BME280;61763;51.416;5.442;2024-03-02T03:00:34;99856.19;;;5.73;100.00
73516;BME280;61763;51.416;5.442;2024-03-02T03:03:01;99858.00;;;5.73;100.00
73516;BME280;61763;51.416;5.442;2024-03-02T03:05:27;99858.06;;;5.71;100.00
73516;BME280;61763;51.416;5.442;2024-03-02T03:07:52;99852.28;;;5.81;100.00
73516;BME280;61763;51.416;5.442;2024-03-02T03:10:18;99856.19;;;5.92;100.00
73516;BME280;61763;51.416;5.442;2024-03-02T03:12:43;99858.09;;;5.90;100.00
73516;BME280;61763;51.416;5.442;2024-03-02T03:15:09;99857.88;;;5.95;100.00
73516;BME280;61763;51.416;5.442;2024-03-02T03:17:35;99861.91;;;5.85;100.00
73516;BME280;61763;51.416;5.442;2024-03-02T03:20:02;99860.03;;;5.87;100.00
73516;BME280;61763;51.416;5.442;2024-03-02T03:22:29;99859.81;;;5.91;100.00
73516;BME280;61763;51.416;5.442;2024-03-02T03:24:55;99864.44;;;5.88;100.00
73516;BME280;61763;51.416;5.442;2024-03-02T03:27:20;99860.78;;;5.90;100.00
73516;BME280;61763;51.416;5.442;2024-03-02T03:29:46;99865.97;;;5.93;100.00
73516;BME280;61763;51.416;5.442;2024-03-02T03:32:11;99861.78;;;5.88;100.00
73516;BME280;61763;51.416;5.442;2024-03-02T03:34:36;99870.44;;;5.93;100.00
73516;BME280;61763;51.416;5.442;2024-03-02T03:37:02;99882.34;;;6.06;100.00
73516;BME280;61763;51.416;5.442;2024-03-02T03:39:28;99883.38;;;6.04;100.00
73516;BME280;61763;51.416;5.442;2024-03-02T03:41:54;99877.47;;;5.95;100.00
73516;BME280;61763;51.416;5.442;2024-03-02T03:44:19;99864.81;;;5.99;100.00
73516;BME280;61763;51.416;5.442;2024-03-02T03:46:44;99879.22;;;5.96;100.00
73516;BME280;61763;51.416;5.442;2024-03-02T03:49:10;99869.53;;;5.94;100.00
73516;BME280;61763;51.416;5.442;2024-03-02T03:51:35;99870.38;;;5.94;100.00
73516;BME280;61763;51.416;5.442;2024-03-02T03:54:01;99892.22;;;5.85;100.00
73516;BME280;61763;51.416;5.442;2024-03-02T03:56:26;99876.63;;;5.95;100.00
73516;BME280;61763;51.416;5.442;2024-03-02T03:58:52;99879.75;;;6.05;100.00
73516;BME280;61763;51.416;5.442;2024-03-02T04:01:17;99871.63;;;6.06;100.00
73516;BME280;61763;51.416;5.442;2024-03-02T04:03:43;99884.41;;;6.01;100.00
73516;BME280;61763;51.416;5.442;2024-03-02T04:06:08;99889.19;;;5.93;100.00
73516;BME280;61763;51.416;5.442;2024-03-02T04:08:33;99887.25;;;5.96;100.00
73516;BME280;61763;51.416;5.442;2024-03-02T04:10:59;99883.06;;;5.91;100.00
73516;BME280;61763;51.416;5.442;2024-03-02T04:13:24;99880.75;;;5.83;100.00
73516;BME280;61763;51.416;5.442;2024-03-02T04:15:49;99879.81;;;5.64;100.00
73516;BME280;61763;51.416;5.442;2024-03-02T04:18:15;99881.78;;;5.60;100.00
73516;BME280;61763;51.416;5.442;2024-03-02T04:20:41;99883.00;;;5.53;100.00
73516;BME280;61763;51.416;5.442;2024-03-02T04:23:06;99880.59;;;5.47;100.00
73516;BME280;61763;51.416;5.442;2024-03-02T04:25:31;99885.88;;;5.48;100.00
73516;BME280;61763;51.416;5.442;2024-03-02T04:27:57;99885.66;;;5.53;100.00
73516;BME280;61763;51.416;5.442;2024-03-02T04:30:23;99871.94;;;5.60;100.00
73516;BME280;61763;51.416;5.442;2024-03-02T04:32:48;99883.31;;;5.66;100.00
73516;BME280;61763;51.416;5.442;2024-03-02T04:35:14;99897.28;;;5.72;100.00
73516;BME280;61763;51.416;5.442;2024-03-02T04:37:39;99883.75;;;5.75;100.00
73516;BME280;61763;51.416;5.442;2024-03-02T04:40:05;99881.97;;;5.76;100.00
73516;BME280;61763;51.416;5.442;2024-03-02T04:42:34;99883.59;;;5.78;100.00
73516;BME280;61763;51.416;5.442;2024-03-02T04:45:00;99884.06;;;5.88;100.00
73516;BME280;61763;51.416;5.442;2024-03-02T04:47:25;99880.59;;;5.86;100.00
73516;BME280;61763;51.416;5.442;2024-03-02T04:49:51;99881.38;;;5.88;100.00
73516;BME280;61763;51.416;5.442;2024-03-02T04:52:16;99885.81;;;5.89;100.00
73516;BME280;61763;51.416;5.442;2024-03-02T04:54:42;99892.31;;;5.84;100.00
73516;BME280;61763;51.416;5.442;2024-03-02T04:57:26;99887.03;;;5.82;100.00
73516;BME280;61763;51.416;5.442;2024-03-02T04:59:51;99900.03;;;5.71;100.00
73516;BME280;61763;51.416;5.442;2024-03-02T05:02:17;99898.69;;;5.60;100.00
73516;BME280;61763;51.416;5.442;2024-03-02T05:04:42;99893.19;;;5.64;100.00
73516;BME280;61763;51.416;5.442;2024-03-02T05:07:07;99892.38;;;5.42;100.00
73516;BME280;61763;51.416;5.442;2024-03-02T05:09:33;99903.69;;;5.29;100.00
73516;BME280;61763;51.416;5.442;2024-03-02T05:11:58;99906.66;;;5.21;100.00
73516;BME280;61763;51.416;5.442;2024-03-02T05:14:42;99911.69;;;5.08;100.00
73516;BME280;61763;51.416;5.442;2024-03-02T05:17:07;99914.47;;;5.05;100.00
73516;BME280;61763;51.416;5.442;2024-03-02T05:19:33;99919.47;;;5.14;100.00
73516;BME280;61763;51.416;5.442;2024-03-02T05:21:58;99912.16;;;5.18;100.00
73516;BME280;61763;51.416;5.442;2024-03-02T05:24:24;99911.97;;;5.22;100.00
73516;BME280;61763;51.416;5.442;2024-03-02T05:26:52;99924.28;;;5.26;100.00
73516;BME280;61763;51.416;5.442;2024-03-02T05:29:17;99928.28;;;5.37;100.00
73516;BME280;61763;51.416;5.442;2024-03-02T05:31:43;99923.63;;;5.42;100.00
73516;BME280;61763;51.416;5.442;2024-03-02T05:34:08;99923.13;;;5.53;100.00
73516;BME280;61763;51.416;5.442;2024-03-02T05:36:33;99927.88;;;5.67;100.00
73516;BME280;61763;51.416;5.442;2024-03-02T05:38:59;99932.28;;;5.68;100.00
73516;BME280;61763;51.416;5.442;2024-03-02T05:41:24;99930.09;;;5.77;100.00
73516;BME280;61763;51.416;5.442;2024-03-02T05:43:49;99935.78;;;5.89;100.00
73516;BME280;61763;51.416;5.442;2024-03-02T05:46:15;99925.50;;;5.79;100.00
73516;BME280;61763;51.416;5.442;2024-03-02T05:48:40;99931.16;;;5.73;100.00
73516;BME280;61763;51.416;5.442;2024-03-02T05:51:05;99924.03;;;5.72;100.00
73516;BME280;61763;51.416;5.442;2024-03-02T05:53:31;99939.06;;;5.56;100.00
73516;BME280;61763;51.416;5.442;2024-03-02T05:55:56;99932.84;;;5.55;100.00
73516;BME280;61763;51.416;5.442;2024-03-02T05:58:22;99936.44;;;5.54;100.00
73516;BME280;61763;51.416;5.442;2024-03-02T06:01:16;99930.16;;;5.76;100.00
73516;BME280;61763;51.416;5.442;2024-03-02T06:03:43;99927.88;;;5.67;100.00
73516;BME280;61763;51.416;5.442;2024-03-02T06:06:09;99928.69;;;5.69;100.00
73516;BME280;61763;51.416;5.442;2024-03-02T06:08:34;99936.31;;;5.57;100.00
73516;BME280;61763;51.416;5.442;2024-03-02T06:11:00;99940.47;;;5.44;100.00
73516;BME280;61763;51.416;5.442;2024-03-02T06:13:25;99945.75;;;5.25;100.00
73516;BME280;61763;51.416;5.442;2024-03-02T06:15:51;99946.22;;;5.14;100.00
73516;BME280;61763;51.416;5.442;2024-03-02T06:18:17;99952.06;;;5.02;100.00
73516;BME280;61763;51.416;5.442;2024-03-02T06:20:42;99952.44;;;4.93;100.00
73516;BME280;61763;51.416;5.442;2024-03-02T06:23:08;99949.66;;;4.73;100.00
73516;BME280;61763;51.416;5.442;2024-03-02T06:25:33;99956.03;;;4.69;100.00
73516;BME280;61763;51.416;5.442;2024-03-02T06:27:58;99954.44;;;4.65;100.00
73516;BME280;61763;51.416;5.442;2024-03-02T06:30:24;99958.13;;;4.63;100.00
73516;BME280;61763;51.416;5.442;2024-03-02T06:32:49;99953.81;;;4.81;100.00
73516;BME280;61763;51.416;5.442;2024-03-02T06:35:15;99953.38;;;4.69;100.00
73516;BME280;61763;51.416;5.442;2024-03-02T06:37:40;99959.34;;;4.76;100.00
73516;BME280;61763;51.416;5.442;2024-03-02T06:40:07;99967.44;;;4.74;100.00
73516;BME280;61763;51.416;5.442;2024-03-02T06:42:35;99964.50;;;4.81;100.00
73516;BME280;61763;51.416;5.442;2024-03-02T06:45:02;99971.53;;;4.83;100.00
73516;BME280;61763;51.416;5.442;2024-03-02T06:47:28;99974.81;;;4.90;100.00
73516;BME280;61763;51.416;5.442;2024-03-02T06:49:53;99980.28;;;5.09;100.00
73516;BME280;61763;51.416;5.442;2024-03-02T06:52:18;99980.31;;;5.30;100.00
73516;BME280;61763;51.416;5.442;2024-03-02T06:54:45;99985.00;;;5.24;100.00
73516;BME280;61763;51.416;5.442;2024-03-02T06:57:11;99987.56;;;5.28;100.00
73516;BME280;61763;51.416;5.442;2024-03-02T06:59:36;99983.00;;;5.50;100.00
73516;BME280;61763;51.416;5.442;2024-03-02T07:02:02;99992.59;;;5.56;100.00
73516;BME280;61763;51.416;5.442;2024-03-02T07:04:27;99988.84;;;5.60;100.00
73516;BME280;61763;51.416;5.442;2024-03-02T07:06:55;99994.78;;;5.67;100.00
73516;BME280;61763;51.416;5.442;2024-03-02T07:09:21;99993.84;;;5.68;100.00
73516;BME280;61763;51.416;5.442;2024-03-02T07:11:50;99990.19;;;5.70;100.00
73516;BME280;61763;51.416;5.442;2024-03-02T07:14:15;99988.22;;;5.74;100.00
73516;BME280;61763;51.416;5.442;2024-03-02T07:16:40;99993.78;;;5.90;100.00
73516;BME280;61763;51.416;5.442;2024-03-02T07:19:06;99990.88;;;5.94;100.00
73516;BME280;61763;51.416;5.442;2024-03-02T07:21:31;99990.97;;;5.93;100.00
73516;BME280;61763;51.416;5.442;2024-03-02T07:23:58;99998.00;;;5.95;100.00
73516;BME280;61763;51.416;5.442;2024-03-02T07:26:24;99997.06;;;5.96;100.00
73516;BME280;61763;51.416;5.442;2024-03-02T07:28:50;100002.38;;;5.98;100.00
73516;BME280;61763;51.416;5.442;2024-03-02T07:31:16;99994.22;;;6.01;100.00
73516;BME280;61763;51.416;5.442;2024-03-02T07:33:44;99994.00;;;6.06;100.00
73516;BME280;61763;51.416;5.442;2024-03-02T07:36:09;100006.53;;;6.05;100.00
73516;BME280;61763;51.416;5.442;2024-03-02T07:38:34;100001.69;;;6.13;100.00
73516;BME280;61763;51.416;5.442;2024-03-02T07:41:00;100009.22;;;6.05;100.00
73516;BME280;61763;51.416;5.442;2024-03-02T07:43:26;99999.72;;;5.98;100.00
73516;BME280;61763;51.416;5.442;2024-03-02T07:45:51;100001.50;;;5.97;100.00
73516;BME280;61763;51.416;5.442;2024-03-02T07:48:17;100005.63;;;5.84;100.00
73516;BME280;61763;51.416;5.442;2024-03-02T07:50:42;100006.75;;;5.78;100.00
73516;BME280;61763;51.416;5.442;2024-03-02T07:53:08;100006.91;;;5.75;100.00
73516;BME280;61763;51.416;5.442;2024-03-02T07:55:34;100010.25;;;5.81;100.00
73516;BME280;61763;51.416;5.442;2024-03-02T07:58:00;100009.44;;;5.78;100.00
73516;BME280;61763;51.416;5.442;2024-03-02T08:00:26;100008.50;;;5.79;100.00
73516;BME280;61763;51.416;5.442;2024-03-02T08:02:52;100007.59;;;5.81;100.00
73516;BME280;61763;51.416;5.442;2024-03-02T08:05:18;100006.53;;;5.85;100.00
73516;BME280;61763;51.416;5.442;2024-03-02T08:07:45;100003.25;;;5.99;100.00
73516;BME280;61763;51.416;5.442;2024-03-02T08:10:11;100006.59;;;6.43;100.00
73516;BME280;61763;51.416;5.442;2024-03-02T08:12:36;100004.31;;;6.53;100.00
73516;BME280;61763;51.416;5.442;2024-03-02T08:15:01;100010.84;;;6.66;100.00
73516;BME280;61763;51.416;5.442;2024-03-02T08:17:27;100008.22;;;6.84;100.00
73516;BME280;61763;51.416;5.442;2024-03-02T08:19:53;100011.91;;;7.00;100.00
73516;BME280;61763;51.416;5.442;2024-03-02T08:22:19;100012.53;;;7.25;100.00
73516;BME280;61763;51.416;5.442;2024-03-02T08:24:44;99998.97;;;7.45;100.00
73516;BME280;61763;51.416;5.442;2024-03-02T08:27:10;99997.91;;;7.48;100.00
73516;BME280;61763;51.416;5.442;2024-03-02T08:29:35;100013.34;;;7.62;100.00
73516;BME280;61763;51.416;5.442;2024-03-02T08:32:01;100004.09;;;7.67;100.00
73516;BME280;61763;51.416;5.442;2024-03-02T08:34:26;100006.53;;;7.89;100.00
73516;BME280;61763;51.416;5.442;2024-03-02T08:36:51;100009.06;;;7.93;100.00
73516;BME280;61763;51.416;5.442;2024-03-02T08:39:17;100012.41;;;8.14;100.00
73516;BME280;61763;51.416;5.442;2024-03-02T08:41:44;100010.97;;;8.24;100.00
73516;BME280;61763;51.416;5.442;2024-03-02T08:44:09;100012.28;;;8.33;100.00
73516;BME280;61763;51.416;5.442;2024-03-02T08:46:35;100011.78;;;8.42;100.00
73516;BME280;61763;51.416;5.442;2024-03-02T08:49:01;100011.84;;;8.58;100.00
73516;BME280;61763;51.416;5.442;2024-03-02T08:51:26;100012.88;;;8.71;100.00
73516;BME280;61763;51.416;5.442;2024-03-02T08:53:52;100012.13;;;8.69;100.00
73516;BME280;61763;51.416;5.442;2024-03-02T08:56:17;100009.88;;;8.77;100.00
73516;BME280;61763;51.416;5.442;2024-03-02T08:58:43;100017.41;;;8.87;100.00
73516;BME280;61763;51.416;5.442;2024-03-02T09:01:09;100003.69;;;8.91;100.00
73516;BME280;61763;51.416;5.442;2024-03-02T09:03:35;100012.81;;;9.05;100.00
73516;BME280;61763;51.416;5.442;2024-03-02T09:06:02;100003.59;;;9.09;100.00
73516;BME280;61763;51.416;5.442;2024-03-02T09:08:27;100014.97;;;9.14;100.00
73516;BME280;61763;51.416;5.442;2024-03-02T09:10:53;100011.84;;;9.06;100.00
73516;BME280;61763;51.416;5.442;2024-03-02T09:13:19;100022.00;;;9.01;100.00
73516;BME280;61763;51.416;5.442;2024-03-02T09:15:45;100017.66;;;9.14;100.00
73516;BME280;61763;51.416;5.442;2024-03-02T09:18:10;100013.66;;;9.21;100.00
73516;BME280;61763;51.416;5.442;2024-03-02T09:20:36;100006.59;;;9.35;100.00
73516;BME280;61763;51.416;5.442;2024-03-02T09:23:01;100016.47;;;9.50;100.00
73516;BME280;61763;51.416;5.442;2024-03-02T09:25:26;100009.03;;;9.70;100.00
73516;BME280;61763;51.416;5.442;2024-03-02T09:27:52;100000.97;;;9.84;100.00
73516;BME280;61763;51.416;5.442;2024-03-02T09:30:17;100006.59;;;9.95;100.00
73516;BME280;61763;51.416;5.442;2024-03-02T09:32:42;100009.84;;;10.00;100.00
73516;BME280;61763;51.416;5.442;2024-03-02T09:35:08;100014.09;;;10.05;100.00
73516;BME280;61763;51.416;5.442;2024-03-02T09:37:34;100009.28;;;10.10;100.00
73516;BME280;61763;51.416;5.442;2024-03-02T09:40:00;100001.28;;;10.08;100.00
73516;BME280;61763;51.416;5.442;2024-03-02T09:42:25;100000.59;;;10.35;100.00
73516;BME280;61763;51.416;5.442;2024-03-02T09:44:51;100007.84;;;10.33;100.00
73516;BME280;61763;51.416;5.442;2024-03-02T09:47:17;100007.75;;;10.06;100.00
73516;BME280;61763;51.416;5.442;2024-03-02T09:49:42;100002.38;;;10.06;100.00
73516;BME280;61763;51.416;5.442;2024-03-02T09:52:10;100006.69;;;10.23;100.00
73516;BME280;61763;51.416;5.442;2024-03-02T09:54:35;100006.84;;;10.36;100.00
73516;BME280;61763;51.416;5.442;2024-03-02T09:57:02;100003.66;;;10.58;100.00
73516;BME280;61763;51.416;5.442;2024-03-02T09:59:28;100006.91;;;10.63;100.00
73516;BME280;61763;51.416;5.442;2024-03-02T10:02:01;99997.84;;;10.49;100.00
73516;BME280;61763;51.416;5.442;2024-03-02T10:04:31;99994.78;;;10.56;100.00
73516;BME280;61763;51.416;5.442;2024-03-02T10:07:26;99991.28;;;10.82;100.00
73516;BME280;61763;51.416;5.442;2024-03-02T10:09:52;99995.31;;;10.90;100.00
73516;BME280;61763;51.416;5.442;2024-03-02T10:12:18;99986.50;;;11.00;100.00
73516;BME280;61763;51.416;5.442;2024-03-02T10:14:44;99977.53;;;11.00;100.00
73516;BME280;61763;51.416;5.442;2024-03-02T10:17:12;99980.69;;;11.07;100.00
73516;BME280;61763;51.416;5.442;2024-03-02T10:19:39;99977.13;;;11.06;100.00
73516;BME280;61763;51.416;5.442;2024-03-02T10:22:06;99972.47;;;11.08;100.00
73516;BME280;61763;51.416;5.442;2024-03-02T10:24:35;99972.75;;;11.18;100.00
73516;BME280;61763;51.416;5.442;2024-03-02T10:27:15;99968.66;;;11.25;100.00
73516;BME280;61763;51.416;5.442;2024-03-02T10:29:41;99970.59;;;11.23;100.00
73516;BME280;61763;51.416;5.442;2024-03-02T10:32:10;99972.91;;;11.29;100.00
73516;BME280;61763;51.416;5.442;2024-03-02T10:34:42;99980.31;;;11.26;100.00
73516;BME280;61763;51.416;5.442;2024-03-02T10:37:10;99975.44;;;11.18;100.00
73516;BME280;61763;51.416;5.442;2024-03-02T10:39:36;99975.50;;;11.31;100.00
73516;BME280;61763;51.416;5.442;2024-03-02T10:42:03;99971.59;;;11.35;100.00
73516;BME280;61763;51.416;5.442;2024-03-02T10:44:30;99973.75;;;11.30;100.00
73516;BME280;61763;51.416;5.442;2024-03-02T10:46:55;99965.16;;;11.50;100.00
73516;BME280;61763;51.416;5.442;2024-03-02T10:49:23;99955.88;;;11.67;100.00
73516;BME280;61763;51.416;5.442;2024-03-02T10:51:50;99965.19;;;11.76;100.00
73516;BME280;61763;51.416;5.442;2024-03-02T10:54:15;99943.59;;;11.63;100.00
73516;BME280;61763;51.416;5.442;2024-03-02T10:56:43;99952.00;;;11.71;100.00
73516;BME280;61763;51.416;5.442;2024-03-02T11:01:59;99947.38;;;11.73;100.00
73516;BME280;61763;51.416;5.442;2024-03-02T11:04:26;99943.41;;;12.05;100.00
73516;BME280;61763;51.416;5.442;2024-03-02T11:06:52;99936.25;;;12.17;100.00
73516;BME280;61763;51.416;5.442;2024-03-02T11:09:22;99939.13;;;11.88;100.00
73516;BME280;61763;51.416;5.442;2024-03-02T11:12:25;99948.22;;;11.74;100.00
73516;BME280;61763;51.416;5.442;2024-03-02T11:14:55;99940.56;;;11.68;100.00
73516;BME280;61763;51.416;5.442;2024-03-02T11:17:20;99941.94;;;11.86;100.00
73516;BME280;61763;51.416;5.442;2024-03-02T11:19:48;99950.06;;;11.86;100.00
73516;BME280;61763;51.416;5.442;2024-03-02T11:22:15;99944.66;;;11.86;100.00
73516;BME280;61763;51.416;5.442;2024-03-02T11:24:48;99940.81;;;12.03;100.00
73516;BME280;61763;51.416;5.442;2024-03-02T11:27:14;99938.63;;;12.21;100.00
73516;BME280;61763;51.416;5.442;2024-03-02T11:32:17;99931.41;;;12.59;100.00
73516;BME280;61763;51.416;5.442;2024-03-02T11:34:46;99938.63;;;12.71;100.00
73516;BME280;61763;51.416;5.442;2024-03-02T11:37:13;99939.38;;;12.73;100.00
73516;BME280;61763;51.416;5.442;2024-03-02T11:39:39;99943.66;;;12.89;100.00
73516;BME280;61763;51.416;5.442;2024-03-02T11:42:06;99935.66;;;12.87;100.00
73516;BME280;61763;51.416;5.442;2024-03-02T11:44:35;99932.97;;;12.74;100.00
73516;BME280;61763;51.416;5.442;2024-03-02T11:47:03;99921.53;;;12.71;100.00
73516;BME280;61763;51.416;5.442;2024-03-02T11:52:09;99931.66;;;12.43;100.00
73516;BME280;61763;51.416;5.442;2024-03-02T11:54:37;99920.38;;;12.62;100.00
73516;BME280;61763;51.416;5.442;2024-03-02T11:57:07;99917.53;;;12.64;100.00
73516;BME280;61763;51.416;5.442;2024-03-02T11:59:33;99908.66;;;12.61;100.00
73516;BME280;61763;51.416;5.442;2024-03-02T12:01:59;99908.03;;;12.58;100.00
73516;BME280;61763;51.416;5.442;2024-03-02T12:04:25;99903.56;;;12.33;100.00
73516;BME280;61763;51.416;5.442;2024-03-02T12:06:55;99894.41;;;12.47;100.00
73516;BME280;61763;51.416;5.442;2024-03-02T12:09:21;99892.41;;;12.61;100.00
73516;BME280;61763;51.416;5.442;2024-03-02T12:11:46;99882.75;;;12.70;100.00
73516;BME280;61763;51.416;5.442;2024-03-02T12:14:12;99875.66;;;12.80;100.00
73516;BME280;61763;51.416;5.442;2024-03-02T12:16:44;99878.13;;;12.84;100.00
73516;BME280;61763;51.416;5.442;2024-03-02T12:19:09;99871.25;;;12.79;100.00
73516;BME280;61763;51.416;5.442;2024-03-02T12:21:35;99863.06;;;12.44;100.00
73516;BME280;61763;51.416;5.442;2024-03-02T12:24:01;99856.53;;;12.47;100.00
73516;BME280;61763;51.416;5.442;2024-03-02T12:26:27;99852.81;;;12.60;100.00
73516;BME280;61763;51.416;5.442;2024-03-02T12:28:53;99853.94;;;12.45;100.00
73516;BME280;61763;51.416;5.442;2024-03-02T12:31:19;99846.13;;;12.77;100.00
73516;BME280;61763;51.416;5.442;2024-03-02T12:33:46;99838.59;;;13.05;100.00
73516;BME280;61763;51.416;5.442;2024-03-02T12:36:13;99845.41;;;13.11;100.00
73516;BME280;61763;51.416;5.442;2024-03-02T12:38:43;99844.50;;;13.35;100.00
73516;BME280;61763;51.416;5.442;2024-03-02T12:41:09;99846.25;;;13.36;100.00
73516;BME280;61763;51.416;5.442;2024-03-02T12:43:34;99844.91;;;13.17;100.00
73516;BME280;61763;51.416;5.442;2024-03-02T12:46:00;99838.09;;;13.00;100.00
73516;BME280;61763;51.416;5.442;2024-03-02T12:48:25;99842.63;;;12.88;100.00
73516;BME280;61763;51.416;5.442;2024-03-02T12:50:51;99838.59;;;13.05;100.00
73516;BME280;61763;51.416;5.442;2024-03-02T12:53:16;99838.25;;;13.10;100.00
73516;BME280;61763;51.416;5.442;2024-03-02T12:55:42;99838.41;;;13.20;100.00
73516;BME280;61763;51.416;5.442;2024-03-02T12:58:16;99831.25;;;13.19;100.00
73516;BME280;61763;51.416;5.442;2024-03-02T13:00:41;99826.19;;;13.14;100.00